Time;durP1;ratioP1;P1;durP2;ratioP2;P2;SDS_P1;SDS_P2;PMS_P1;PMS_P2;Temp;Humidity;BMP_temperature;BMP_pressure;BME280_temperature;BME280_humidity;BME280_pressure;Samples;Min_cycle;Max_cycle;Signal;HPM_P1;HPM_P2
2022/08/23 00:00:30;;;;;;;;;7.00;4.75;;;;;23.97;43.80;100957.31;5077548;28;45295;-58
2022/08/23 00:02:56;;;;;;;;;2.25;2.25;;;;;23.96;43.98;100966.34;5079428;28;45490;-58
2022/08/23 00:05:21;;;;;;;;;4.00;4.00;;;;;23.94;44.04;100960.22;5079580;28;45931;-58
2022/08/23 00:07:47;;;;;;;;;7.25;4.75;;;;;23.93;43.89;100962.03;5079632;28;45370;-58
2022/08/23 00:10:14;;;;;;;;;4.00;4.00;;;;;23.91;43.93;100957.69;5079994;28;45445;-58
2022/08/23 00:12:40;;;;;;;;;3.00;2.75;;;;;23.89;44.02;100954.28;5079580;28;45374;-58
2022/08/23 00:15:08;;;;;;;;;3.75;3.75;;;;;23.88;44.02;100949.88;5061384;27;45323;-58
2022/08/23 00:17:34;;;;;;;;;4.50;4.50;;;;;23.85;44.10;100938.38;5057627;28;45261;-58
2022/08/23 00:19:59;;;;;;;;;4.75;4.00;;;;;23.83;44.12;100945.66;5059268;28;45334;-58
2022/08/23 00:22:25;;;;;;;;;6.00;3.00;;;;;23.81;44.12;100947.59;5059166;28;45445;-58
2022/08/23 00:24:50;;;;;;;;;4.25;3.50;;;;;23.81;44.29;100946.72;5059024;28;46311;-58
2022/08/23 00:27:16;;;;;;;;;4.75;4.00;;;;;23.80;44.21;100947.72;5059178;28;45366;-58
2022/08/23 00:29:44;;;;;;;;;3.25;3.25;;;;;23.76;44.39;100946.16;5059285;28;45361;-58
2022/08/23 00:32:12;;;;;;;;;3.00;3.00;;;;;23.74;44.19;100938.22;5058994;28;45458;-58
2022/08/23 00:34:39;;;;;;;;;4.00;4.00;;;;;23.74;44.47;100940.06;5058659;28;45950;-58
2022/08/23 00:37:05;;;;;;;;;3.75;3.75;;;;;23.72;44.48;100945.50;5059129;28;45292;-58
2022/08/23 00:39:31;;;;;;;;;2.75;2.75;;;;;23.70;44.26;100937.56;5060659;28;45273;-58
2022/08/23 00:47:38;;;;;;;;;2.75;2.75;;;;;23.69;44.51;100935.00;5062375;28;45301;-58
2022/08/23 00:47:44;;;;;;;;;3.00;3.00;;;;;23.65;44.51;100937.03;5082243;28;45409;-59
2022/08/23 00:50:36;;;;;;;;;3.25;3.00;;;;;23.65;44.68;100945.06;5074918;28;45353;-59
2022/08/23 00:53:16;;;;;;;;;4.00;3.00;;;;;23.65;44.64;100941.53;5072017;28;45426;-59
2022/08/23 00:55:45;;;;;;;;;3.00;3.00;;;;;23.63;44.65;100944.28;5082332;28;45361;-59
2022/08/23 00:58:13;;;;;;;;;2.25;2.25;;;;;23.63;44.69;100938.09;5082374;28;45292;-59
2022/08/23 01:00:39;;;;;;;;;2.75;2.75;;;;;23.62;44.61;100950.66;5082238;28;45484;-58
2022/08/23 01:03:07;;;;;;;;;2.75;2.75;;;;;23.63;44.82;100944.28;5081938;28;45287;-59
2022/08/23 01:05:46;;;;;;;;;3.00;2.50;;;;;23.65;45.03;100946.91;5082195;28;45248;-59
2022/08/23 01:08:11;;;;;;;;;5.00;4.00;;;;;23.65;44.79;100947.75;5082230;28;45307;-59
2022/08/23 01:10:47;;;;;;;;;5.25;5.25;;;;;23.65;45.13;100941.53;5082354;28;45226;-59
2022/08/23 01:13:28;;;;;;;;;2.00;2.00;;;;;23.67;44.94;100947.63;5080359;28;45404;-59
2022/08/23 01:16:06;;;;;;;;;4.50;3.00;;;;;23.67;44.92;100951.19;5061734;28;45429;-59
2022/08/23 01:18:33;;;;;;;;;2.00;2.00;;;;;23.68;45.06;100952.94;5061589;28;45339;-59
2022/08/23 01:21:13;;;;;;;;;2.50;1.00;;;;;23.67;44.97;100953.00;5061882;28;45366;-59
2022/08/23 01:23:48;;;;;;;;;0.00;0.00;;;;;23.67;45.08;100956.56;5069812;28;46241;-59
2022/08/23 01:26:17;;;;;;;;;2.25;2.25;;;;;23.66;44.99;100956.66;5081353;28;45296;-59
2022/08/23 01:28:42;;;;;;;;;3.50;2.00;;;;;23.65;45.08;100954.94;5081970;28;45235;-59
2022/08/23 01:31:08;;;;;;;;;1.50;1.50;;;;;23.63;45.41;100952.34;5081853;28;45274;-59
2022/08/23 01:33:37;;;;;;;;;3.75;2.25;;;;;23.62;45.15;100953.31;5081809;28;45600;-59
2022/08/23 01:36:03;;;;;;;;;2.00;2.00;;;;;23.59;45.44;100955.34;5081870;28;45397;-59
2022/08/23 01:38:28;;;;;;;;;2.00;2.00;;;;;23.59;45.06;100953.50;5081675;28;46357;-59
2022/08/23 01:40:54;;;;;;;;;2.50;1.75;;;;;23.58;45.09;100942.91;5081700;28;45425;-59
2022/08/23 01:43:20;;;;;;;;;3.00;3.00;;;;;23.58;45.34;100956.31;5081884;28;45215;-59
2022/08/23 01:45:48;;;;;;;;;2.25;2.00;;;;;23.57;45.23;100952.78;5081523;28;46139;-59
2022/08/23 01:48:14;;;;;;;;;3.75;2.00;;;;;23.54;45.32;100956.50;5081334;28;45529;-59
2022/08/23 01:50:40;;;;;;;;;3.25;2.25;;;;;23.54;45.21;100955.66;5070443;28;45481;-59
2022/08/23 01:53:06;;;;;;;;;1.25;1.25;;;;;23.52;45.05;100949.50;5071531;28;45339;-59
2022/08/23 01:55:32;;;;;;;;;3.00;3.00;;;;;23.49;45.23;100947.03;5081600;28;46380;-59
2022/08/23 01:58:01;;;;;;;;;2.25;2.00;;;;;23.52;45.38;100952.19;5081466;28;45366;-60
2022/08/23 02:00:32;;;;;;;;;3.00;2.00;;;;;23.47;45.48;100947.16;5081446;28;45318;-59
2022/08/23 02:02:59;;;;;;;;;2.00;2.00;;;;;23.48;45.28;100948.88;5081198;28;45377;-59
2022/08/23 02:05:25;;;;;;;;;1.00;1.00;;;;;23.47;45.45;100952.50;5081266;28;47074;-59
2022/08/23 02:07:51;;;;;;;;;1.00;1.00;;;;;23.46;45.38;100949.91;5081247;28;45271;-59
2022/08/23 02:10:17;;;;;;;;;3.00;3.00;;;;;23.45;45.48;100950.91;5081297;28;45460;-59
2022/08/23 02:12:43;;;;;;;;;1.00;1.00;;;;;23.43;45.57;100953.66;5081428;28;45725;-59
2022/08/23 02:15:08;;;;;;;;;1.00;1.00;;;;;23.41;45.56;100954.72;5061577;28;47360;-59
2022/08/23 02:17:34;;;;;;;;;2.00;2.00;;;;;23.40;45.54;100955.69;5071960;28;45306;-59
2022/08/23 02:20:01;;;;;;;;;1.50;1.25;;;;;23.36;45.87;100960.41;5081320;28;45264;-59
2022/08/23 02:22:26;;;;;;;;;1.75;1.00;;;;;23.37;45.38;100959.44;5081129;28;46161;-59
2022/08/23 02:24:51;;;;;;;;;1.00;1.00;;;;;23.35;45.46;100964.03;5080977;28;45807;-59
2022/08/23 02:27:17;;;;;;;;;3.00;1.25;;;;;23.32;45.63;100970.44;5081070;28;45391;-59
2022/08/23 02:29:44;;;;;;;;;2.75;2.50;;;;;23.32;45.73;100966.88;5081186;28;45259;-59
2022/08/23 02:32:12;;;;;;;;;1.00;1.00;;;;;23.28;45.83;100957.34;5080854;28;45504;-59
2022/08/23 02:34:38;;;;;;;;;3.00;2.00;;;;;23.29;45.45;100967.09;5060359;28;47015;-59
2022/08/23 02:37:05;;;;;;;;;1.50;1.00;;;;;23.25;45.87;100955.72;5072597;28;45400;-59
2022/08/23 02:39:31;;;;;;;;;1.00;1.00;;;;;23.25;45.61;100960.22;5080907;28;45639;-59
2022/08/23 02:41:56;;;;;;;;;2.00;2.00;;;;;23.20;45.86;100960.50;5080673;28;45325;-59
2022/08/23 02:44:22;;;;;;;;;2.00;2.00;;;;;23.21;45.69;100964.91;5080594;28;45362;-59
2022/08/23 02:46:48;;;;;;;;;2.00;1.50;;;;;23.18;45.94;100965.97;5080650;28;45282;-59
2022/08/23 02:49:13;;;;;;;;;2.00;2.00;;;;;23.15;45.85;100963.47;5080601;28;45479;-59
2022/08/23 02:51:39;;;;;;;;;3.00;3.00;;;;;23.15;45.98;100957.22;5061803;28;45434;-59
2022/08/23 02:54:05;;;;;;;;;2.00;2.00;;;;;23.14;45.88;100958.19;5078594;28;46043;-59
2022/08/23 02:56:31;;;;;;;;;2.00;2.00;;;;;23.12;45.99;100958.28;5080699;28;45202;-59
2022/08/23 02:58:57;;;;;;;;;2.00;2.00;;;;;23.11;45.83;100963.75;5080584;28;45415;-59
2022/08/23 03:01:32;;;;;;;;;2.00;2.00;;;;;23.10;46.01;100967.38;5079347;28;45303;-59
2022/08/23 03:03:59;;;;;;;;;2.00;2.00;;;;;23.09;46.08;100966.50;5060596;28;45394;-59
2022/08/23 03:06:24;;;;;;;;;3.25;2.50;;;;;23.08;46.09;100970.19;5060075;28;45342;-59
2022/08/23 03:08:50;;;;;;;;;2.00;2.00;;;;;23.06;46.22;100966.72;5060222;28;45330;-59
2022/08/23 03:11:19;;;;;;;;;3.00;2.00;;;;;23.03;46.15;100966.91;5060166;28;45451;-59
2022/08/23 03:13:45;;;;;;;;;3.25;2.75;;;;;23.02;46.37;100963.38;5064085;28;45295;-59
2022/08/23 03:16:11;;;;;;;;;2.00;2.00;;;;;23.02;46.40;100965.19;5059864;28;46469;-59
2022/08/23 03:18:37;;;;;;;;;1.00;1.00;;;;;23.01;46.38;100961.63;5059907;28;45399;-59
2022/08/23 03:21:05;;;;;;;;;1.75;1.75;;;;;23.00;46.23;100970.63;5059829;28;45300;-59
2022/08/23 03:23:31;;;;;;;;;2.75;1.75;;;;;22.99;46.54;100965.38;5060090;28;47386;-59
2022/08/23 03:25:58;;;;;;;;;2.75;1.00;;;;;22.98;46.35;100969.88;5059798;28;45504;-59
2022/08/23 03:28:24;;;;;;;;;4.00;4.00;;;;;22.97;46.07;100970.84;5060023;28;45322;-59
2022/08/23 03:30:50;;;;;;;;;1.25;1.25;;;;;22.97;46.54;100973.53;5059674;28;45231;-59
2022/08/23 03:33:15;;;;;;;;;1.50;1.50;;;;;22.93;46.64;100971.13;5059480;28;46062;-59
2022/08/23 03:35:41;;;;;;;;;1.00;1.00;;;;;22.93;46.50;100977.34;5059869;28;45375;-59
2022/08/23 03:38:07;;;;;;;;;1.25;1.25;;;;;22.92;46.46;100980.09;5059991;28;45251;-59
2022/08/23 03:40:32;;;;;;;;;3.00;3.00;;;;;22.87;46.54;100970.56;5059737;28;45421;-59
2022/08/23 03:42:57;;;;;;;;;2.00;2.00;;;;;22.89;47.00;100981.16;5059820;28;46307;-59
2022/08/23 03:45:23;;;;;;;;;2.00;2.00;;;;;22.87;46.80;100977.75;5059805;28;45425;-59
2022/08/23 03:47:48;;;;;;;;;2.25;2.00;;;;;22.86;46.59;100976.00;5059278;28;45445;-59
2022/08/23 03:50:13;;;;;;;;;2.00;2.00;;;;;22.86;46.57;100978.69;5059590;28;45540;-58
2022/08/23 03:52:39;;;;;;;;;1.75;1.00;;;;;22.84;46.67;100980.59;5066023;28;46045;-59
2022/08/23 03:55:05;;;;;;;;;4.75;4.75;;;;;22.82;46.73;100978.03;5079889;28;45288;-59
2022/08/23 03:57:30;;;;;;;;;5.00;5.00;;;;;22.80;46.66;100987.97;5080083;28;45401;-59
2022/08/23 03:59:58;;;;;;;;;3.00;3.00;;;;;22.77;46.83;100984.63;5079813;28;45295;-59
2022/08/23 04:02:24;;;;;;;;;3.00;3.00;;;;;22.77;47.02;100988.16;5079271;28;47048;-59
2022/08/23 04:04:49;;;;;;;;;3.00;3.00;;;;;22.76;46.96;100993.63;5079726;28;45319;-59
2022/08/23 04:07:19;;;;;;;;;2.50;2.50;;;;;22.76;46.86;101001.66;5079901;28;45228;-59
2022/08/23 04:09:45;;;;;;;;;2.25;2.25;;;;;22.73;46.99;101003.56;5079710;28;45347;-59
2022/08/23 04:12:11;;;;;;;;;1.50;1.50;;;;;22.73;47.13;101005.38;5079461;28;47191;-59
2022/08/23 04:14:36;;;;;;;;;3.00;3.00;;;;;22.70;46.91;101005.56;5069547;28;45338;-59
2022/08/23 04:17:01;;;;;;;;;1.00;1.00;;;;;22.71;47.15;101008.13;5062924;28;45257;-59
2022/08/23 04:19:26;;;;;;;;;2.00;2.00;;;;;22.71;47.05;101008.13;5062682;28;45257;-59
2022/08/23 04:21:52;;;;;;;;;3.25;3.25;;;;;22.72;47.00;101011.69;5062780;28;45310;-59
2022/08/23 04:24:18;;;;;;;;;4.00;2.00;;;;;22.71;46.95;101013.50;5062741;28;45450;-59
2022/08/23 04:26:44;;;;;;;;;2.00;2.00;;;;;22.71;47.04;101010.81;5062648;28;45165;-59
2022/08/23 04:29:13;;;;;;;;;2.00;1.00;;;;;22.72;46.83;101017.91;5062569;28;45235;-59
2022/08/23 04:31:38;;;;;;;;;1.25;1.00;;;;;22.73;47.34;101016.09;5062422;28;46359;-59
2022/08/23 04:34:04;;;;;;;;;3.00;3.00;;;;;22.73;47.35;101019.63;5060989;28;45453;-58
2022/08/23 04:36:36;;;;;;;;;2.75;2.00;;;;;22.75;47.22;101024.88;5063067;28;45290;-58
2022/08/23 04:39:03;;;;;;;;;3.25;3.25;;;;;22.74;47.38;101023.16;5075264;28;45355;-58
2022/08/23 04:44:13;;;;;;;;;2.00;2.00;;;;;22.77;47.33;101033.69;5062608;28;45181;-58
2022/08/23 04:46:39;;;;;;;;;2.25;2.25;;;;;22.77;47.18;101027.50;5062332;28;45319;-59
2022/08/23 04:49:05;;;;;;;;;2.00;2.00;;;;;22.78;46.91;101034.53;5061906;28;45318;-58
2022/08/23 04:51:30;;;;;;;;;1.25;1.25;;;;;22.76;46.84;101029.28;5062082;28;45453;-58
2022/08/23 04:53:55;;;;;;;;;3.50;3.50;;;;;22.79;47.22;101036.28;5065715;28;45268;-58
2022/08/23 04:56:22;;;;;;;;;2.00;2.00;;;;;22.79;47.55;101038.94;5082598;28;45310;-59
2022/08/23 04:58:47;;;;;;;;;4.00;3.75;;;;;22.80;47.10;101048.72;5081011;28;45717;-59
2022/08/23 05:01:14;;;;;;;;;3.00;3.00;;;;;22.81;47.21;101045.09;5082146;28;45992;-58
2022/08/23 05:03:40;;;;;;;;;2.00;2.00;;;;;22.79;47.33;101044.31;5063760;28;45871;-59
2022/08/23 05:06:06;;;;;;;;;1.75;1.75;;;;;22.81;47.48;101051.28;5072648;28;45212;-58
2022/08/23 05:08:32;;;;;;;;;1.50;1.50;;;;;22.80;47.26;101052.25;5082234;28;45417;-59
2022/08/23 05:11:02;;;;;;;;;2.75;2.75;;;;;22.81;47.00;101053.13;5082349;27;46029;-58
2022/08/23 05:13:28;;;;;;;;;2.50;2.00;;;;;22.80;47.22;101051.41;5078067;28;45469;-58
2022/08/23 05:15:54;;;;;;;;;1.25;1.25;;;;;22.79;47.11;101050.56;5062009;28;45316;-58
2022/08/23 05:18:19;;;;;;;;;2.00;1.75;;;;;22.78;47.23;101058.66;5060223;28;45577;-58
2022/08/23 05:20:45;;;;;;;;;3.00;2.25;;;;;22.77;47.00;101059.63;5061531;28;47090;-58
2022/08/23 05:23:10;;;;;;;;;2.00;2.00;;;;;22.80;47.43;101062.13;5061459;28;45244;-58
2022/08/23 05:25:48;;;;;;;;;2.00;2.00;;;;;22.80;47.66;101062.13;5060756;28;45226;-58
2022/08/23 05:28:40;;;;;;;;;2.00;2.00;;;;;22.78;47.49;101067.56;5061475;28;45304;-58
2022/08/23 05:31:09;;;;;;;;;2.00;2.00;;;;;22.77;47.75;101062.31;5059057;28;45313;-58
2022/08/23 05:33:35;;;;;;;;;2.75;2.00;;;;;22.76;47.81;101064.09;5061322;28;45402;-58
2022/08/23 05:36:02;;;;;;;;;1.25;1.25;;;;;22.75;47.01;101058.84;5061748;28;45323;-58
2022/08/23 05:38:28;;;;;;;;;3.00;3.00;;;;;22.72;47.59;101066.09;5061496;28;45387;-58
2022/08/23 05:40:56;;;;;;;;;2.00;2.00;;;;;22.72;47.71;101058.06;5061306;28;46349;-58
2022/08/23 05:43:22;;;;;;;;;1.25;1.25;;;;;22.70;47.47;101062.69;5061548;28;45308;-58
2022/08/23 05:45:47;;;;;;;;;2.25;2.25;;;;;22.71;47.36;101061.69;5061610;28;45268;-58
2022/08/23 05:48:14;;;;;;;;;2.00;2.00;;;;;22.70;47.74;101061.81;5060930;28;45335;-58
2022/08/23 05:50:40;;;;;;;;;2.75;1.75;;;;;22.70;47.41;101068.03;5060972;28;45360;-58
2022/08/23 05:53:07;;;;;;;;;3.75;3.00;;;;;22.69;47.44;101060.94;5071584;28;45433;-58
2022/08/23 05:55:32;;;;;;;;;2.00;2.00;;;;;22.69;47.32;101063.63;5081681;27;45544;-58
2022/08/23 05:57:58;;;;;;;;;3.00;3.00;;;;;22.70;47.70;101065.34;5081344;27;45348;-58
2022/08/23 06:00:24;;;;;;;;;3.00;3.00;;;;;22.70;47.71;101056.44;5081029;28;46071;-58
2022/08/23 06:02:49;;;;;;;;;2.25;2.25;;;;;22.71;47.50;101058.16;5081166;28;45211;-58
2022/08/23 06:05:15;;;;;;;;;4.00;2.75;;;;;22.71;47.54;101059.03;5081548;28;45153;-59
2022/08/23 06:07:41;;;;;;;;;2.75;2.75;;;;;22.70;47.55;101057.31;5081490;28;45297;-58
2022/08/23 06:10:07;;;;;;;;;3.00;3.00;;;;;22.71;47.74;101059.03;5081363;28;45211;-58
2022/08/23 06:12:33;;;;;;;;;3.50;2.00;;;;;22.71;47.39;101068.88;5081358;28;45410;-58
2022/08/23 06:14:58;;;;;;;;;1.25;0.50;;;;;22.72;47.77;101067.94;5063794;28;45486;-64
2022/08/23 06:17:24;;;;;;;;;6.25;3.00;;;;;22.72;47.27;101065.25;5068911;27;45504;-58
2022/08/23 06:19:49;;;;;;;;;0.25;0.25;;;;;22.72;47.59;101062.59;5068296;28;46256;-58
2022/08/23 06:22:15;;;;;;;;;2.75;2.00;;;;;22.77;47.73;101067.66;5066131;28;45312;-59
2022/08/23 06:24:40;;;;;;;;;3.25;3.25;;;;;22.75;47.72;101064.22;5071829;28;45394;-58
2022/08/23 06:27:06;;;;;;;;;2.75;2.75;;;;;22.79;47.61;101063.06;5067012;28;45332;-60
2022/08/23 06:29:31;;;;;;;;;3.75;2.50;;;;;22.80;47.62;101071.00;5067091;27;46214;-59
2022/08/23 06:31:57;;;;;;;;;4.75;3.75;;;;;22.83;47.27;101070.81;5070475;27;45391;-59
2022/08/23 06:34:28;;;;;;;;;2.75;2.75;;;;;22.84;47.69;101080.59;5066449;28;45643;-58
2022/08/23 06:36:57;;;;;;;;;3.50;3.00;;;;;22.85;48.08;101076.09;5071271;28;45510;-59
2022/08/23 06:39:25;;;;;;;;;4.00;4.00;;;;;22.86;48.13;101081.34;5066976;28;45732;-59
2022/08/23 06:41:51;;;;;;;;;4.00;2.25;;;;;22.88;47.79;101076.75;5068840;28;45223;-62
2022/08/23 06:44:18;;;;;;;;;3.00;2.00;;;;;22.89;47.89;101074.94;5073792;28;45259;-60
2022/08/23 06:46:44;;;;;;;;;3.75;3.00;;;;;22.91;47.83;101090.94;5072775;27;45481;-66
2022/08/23 06:49:10;;;;;;;;;5.00;3.00;;;;;22.94;47.81;101085.38;5071478;28;47085;-62
2022/08/23 06:51:43;;;;;;;;;3.00;3.00;;;;;22.95;47.69;101085.28;5073975;27;45438;-61
2022/08/23 06:54:12;;;;;;;;;3.25;3.00;;;;;22.95;47.93;101082.59;5060237;28;45389;-61
2022/08/23 06:56:39;;;;;;;;;4.00;3.00;;;;;23.01;47.85;101092.94;5073419;28;45516;-62
2022/08/23 06:59:05;;;;;;;;;6.50;5.25;;;;;23.03;47.85;101090.16;5071850;28;46146;-62
2022/08/23 07:01:49;;;;;;;;;4.25;4.25;;;;;23.05;48.10;101091.78;5064887;28;45348;-61
2022/08/23 07:04:24;;;;;;;;;3.00;3.00;;;;;23.09;47.68;101091.63;5066595;28;45186;-62
2022/08/23 07:06:50;;;;;;;;;5.25;4.50;;;;;23.13;48.21;101095.84;5071079;27;45192;-62
2022/08/23 07:09:17;;;;;;;;;3.00;3.00;;;;;23.17;47.83;101103.63;5073417;28;45240;-62
2022/08/23 07:11:43;;;;;;;;;4.00;3.25;;;;;23.19;47.89;101096.38;5068883;28;45209;-58
2022/08/23 07:14:11;;;;;;;;;4.00;4.00;;;;;23.25;47.90;101096.94;5074969;27;45422;-58
2022/08/23 07:16:40;;;;;;;;;1.25;1.25;;;;;23.30;47.94;101101.03;5061184;28;45554;-58
2022/08/23 07:19:07;;;;;;;;;5.75;5.75;;;;;23.34;48.14;101107.06;5059814;28;45292;-58
2022/08/23 07:21:34;;;;;;;;;4.50;4.00;;;;;23.41;47.88;101113.78;5063104;28;45462;-58
2022/08/23 07:23:59;;;;;;;;;3.00;3.00;;;;;23.47;48.04;101115.22;5058599;28;45335;-58
2022/08/23 07:26:25;;;;;;;;;4.75;4.75;;;;;23.52;47.91;101107.72;5059079;28;45311;-58
2022/08/23 07:28:50;;;;;;;;;4.25;4.25;;;;;23.58;47.78;101118.06;5060355;28;46896;-58
2022/08/23 07:31:29;;;;;;;;;6.50;4.50;;;;;23.64;48.07;101117.69;5071896;28;45370;-58
2022/08/23 07:34:00;;;;;;;;;5.75;3.00;;;;;23.70;48.23;101116.44;5059719;28;45243;-58
2022/08/23 07:36:27;;;;;;;;;5.75;5.75;;;;;23.76;48.07;101120.56;5059555;28;45406;-58
2022/08/23 07:38:53;;;;;;;;;8.00;6.25;;;;;23.83;47.76;101127.25;5059906;28;45434;-58
2022/08/23 07:41:23;;;;;;;;;8.00;6.00;;;;;23.88;47.83;101118.91;5059309;28;45240;-58
2022/08/23 07:43:48;;;;;;;;;6.00;5.00;;;;;23.94;47.94;101119.41;5059987;28;45374;-58
2022/08/23 07:46:14;;;;;;;;;5.25;5.00;;;;;24.01;47.76;101126.09;5074875;28;45324;-55
2022/08/23 07:48:40;;;;;;;;;7.00;4.75;;;;;24.10;48.09;101123.75;5059875;28;46217;-56
2022/08/23 07:51:09;;;;;;;;;6.00;6.00;;;;;24.16;47.94;101126.94;5063044;28;45328;-58
2022/08/23 07:53:34;;;;;;;;;5.50;5.50;;;;;24.23;47.87;101121.16;5063298;28;45348;-56
2022/08/23 07:56:04;;;;;;;;;3.75;3.75;;;;;24.30;47.69;101123.34;5065425;28;45609;-56
2022/08/23 07:58:29;;;;;;;;;8.00;5.50;;;;;24.39;47.97;101129.91;5062966;28;45267;-56
2022/08/23 08:00:54;;;;;;;;;5.50;5.50;;;;;24.46;47.93;101136.59;5062647;28;48435;-56
2022/08/23 08:03:20;;;;;;;;;9.25;6.00;;;;;24.51;48.04;101133.59;5062891;28;45304;-56
2022/08/23 08:05:45;;;;;;;;;5.00;4.50;;;;;24.57;47.93;101130.50;5063083;28;45465;-56
2022/08/23 08:08:12;;;;;;;;;6.50;6.50;;;;;24.63;47.44;101134.63;5062852;28;45976;-56
2022/08/23 08:10:40;;;;;;;;;5.75;5.00;;;;;24.70;47.67;101138.63;5061666;28;45427;-55
2022/08/23 08:13:07;;;;;;;;;6.75;5.75;;;;;24.75;47.67;101133.78;5062998;28;45387;-56
2022/08/23 08:15:33;;;;;;;;;5.50;5.50;;;;;24.83;47.59;101127.91;5063056;28;45162;-58
2022/08/23 08:17:59;;;;;;;;;5.75;4.25;;;;;24.91;47.08;101143.50;5068641;28;46188;-58
2022/08/23 08:20:26;;;;;;;;;6.50;5.75;;;;;24.95;47.90;101131.56;5083222;27;45443;-58
2022/08/23 08:22:53;;;;;;;;;6.00;5.00;;;;;25.04;47.68;101136.31;5083189;28;45389;-58
2022/08/23 08:25:18;;;;;;;;;5.25;4.00;;;;;25.12;47.65;101133.09;5081676;28;45272;-58
2022/08/23 08:27:43;;;;;;;;;5.50;5.00;;;;;25.19;47.27;101142.44;5065591;28;47947;-58
2022/08/23 08:30:10;;;;;;;;;4.50;4.50;;;;;25.26;47.17;101142.91;5078448;28;45260;-56
2022/08/23 08:32:36;;;;;;;;;3.25;3.25;;;;;25.35;47.53;101144.09;5062356;28;45465;-55
2022/08/23 08:35:02;;;;;;;;;5.00;4.00;;;;;25.39;47.18;101140.22;5062657;28;45178;-58
2022/08/23 08:37:28;;;;;;;;;3.75;3.50;;;;;25.49;47.12;101145.81;5062637;28;45372;-58
2022/08/23 08:39:53;;;;;;;;;4.50;4.50;;;;;25.55;47.47;101140.00;5062603;28;45445;-58
2022/08/23 08:42:31;;;;;;;;;6.00;4.75;;;;;25.62;47.69;101134.06;5062595;28;45387;-58
2022/08/23 08:45:14;;;;;;;;;3.00;3.00;;;;;25.68;47.21;101148.91;5062405;28;45318;-58
2022/08/23 08:48:21;;;;;;;;;4.50;4.50;;;;;25.76;46.80;101141.16;5061962;28;45395;-58
2022/08/23 08:50:54;;;;;;;;;4.25;3.75;;;;;25.82;47.51;101145.22;5011149;28;45450;-58
2022/08/23 08:53:38;;;;;;;;;7.00;4.00;;;;;25.85;46.77;101139.63;5003332;28;45364;-58
2022/08/23 08:56:19;;;;;;;;;4.00;4.00;;;;;25.94;46.87;101152.41;5048045;28;45294;-58
2022/08/23 08:58:54;;;;;;;;;6.00;5.00;;;;;26.00;47.18;101156.50;5060260;28;47113;-58
2022/08/23 09:01:23;;;;;;;;;4.50;3.75;;;;;26.05;46.56;101148.97;5061334;28;45340;-58
2022/08/23 09:03:49;;;;;;;;;5.50;5.25;;;;;26.11;46.55;101151.22;5062075;28;45346;-58
2022/08/23 09:06:24;;;;;;;;;4.00;4.00;;;;;26.20;47.00;101162.25;5061970;28;45736;-58
2022/08/23 09:09:40;;;;;;;;;3.50;3.50;;;;;26.30;47.15;101157.06;5062004;28;46513;-58
2022/08/23 09:12:25;;;;;;;;;5.50;5.50;;;;;26.38;46.36;101165.44;5035705;28;45386;-58
2022/08/23 09:15:09;;;;;;;;;5.75;5.50;;;;;26.46;46.55;101163.03;5068960;28;45285;-58
2022/08/23 09:17:55;;;;;;;;;6.25;4.75;;;;;26.54;46.57;101157.94;5067391;28;46023;-58
2022/08/23 09:20:23;;;;;;;;;4.75;4.00;;;;;26.63;46.70;101158.19;5082287;27;46431;-58
2022/08/23 09:23:04;;;;;;;;;3.00;3.00;;;;;26.72;46.46;101157.50;5081764;28;45282;-58
2022/08/23 09:25:29;;;;;;;;;4.75;4.00;;;;;26.81;46.83;101156.81;5082127;28;45406;-58
2022/08/23 09:27:55;;;;;;;;;7.00;4.00;;;;;26.90;46.28;101160.66;5082061;28;45284;-58
2022/08/23 09:30:20;;;;;;;;;4.75;3.75;;;;;26.97;46.17;101161.91;5067162;28;46348;-58
2022/08/23 09:32:51;;;;;;;;;5.75;4.25;;;;;27.08;46.16;101153.84;5061562;28;45635;-58
2022/08/23 09:35:20;;;;;;;;;5.50;5.50;;;;;27.19;45.92;101161.06;5061754;28;45344;-59
2022/08/23 09:37:52;;;;;;;;;8.00;6.00;;;;;27.29;46.53;101158.53;5061683;28;45325;-58
2022/08/23 09:40:27;;;;;;;;;9.75;6.75;;;;;27.38;45.54;101152.41;5061257;28;46048;-56
2022/08/23 09:43:31;;;;;;;;;4.50;4.50;;;;;27.50;46.33;101163.25;5061706;28;45311;-56
2022/08/23 09:46:00;;;;;;;;;7.50;5.00;;;;;27.61;46.36;101160.56;5059428;28;45529;-56
2022/08/23 09:48:43;;;;;;;;;5.75;5.50;;;;;27.71;45.80;101164.22;5060980;28;45548;-56
2022/08/23 09:51:22;;;;;;;;;2.50;2.50;;;;;27.79;45.69;101163.59;5061138;28;46240;-56
2022/08/23 09:54:02;;;;;;;;;4.25;4.00;;;;;27.84;45.74;101164.09;5069196;28;45323;-59
2022/08/23 09:56:32;;;;;;;;;4.00;4.00;;;;;27.93;45.36;101156.22;5081564;28;45167;-58
2022/08/23 09:58:58;;;;;;;;;4.00;4.00;;;;;27.98;45.16;101162.97;5081588;28;45306;-58
2022/08/23 10:01:32;;;;;;;;;6.75;5.00;;;;;28.06;45.84;101151.56;5081107;28;45259;-58
2022/08/23 10:04:15;;;;;;;;;6.00;4.00;;;;;28.12;45.18;101148.34;5079930;28;45326;-59
2022/08/23 10:06:44;;;;;;;;;7.25;6.25;;;;;28.18;45.08;101152.41;5081209;28;45270;-58
2022/08/23 10:09:28;;;;;;;;;7.00;6.00;;;;;28.24;45.09;101149.19;5081205;28;45367;-57
2022/08/23 10:11:56;;;;;;;;;6.00;4.75;;;;;28.28;44.65;101145.25;5080682;27;46840;-56
2022/08/23 10:14:24;;;;;;;;;7.00;5.75;;;;;28.32;44.66;101152.09;5081133;28;45368;-56
2022/08/23 10:17:14;;;;;;;;;5.00;4.25;;;;;28.36;44.44;101145.47;5081241;27;45300;-59
2022/08/23 10:20:09;;;;;;;;;5.00;5.00;;;;;28.41;44.80;101131.56;5066424;28;45344;-59
2022/08/23 10:22:47;;;;;;;;;4.00;3.75;;;;;28.49;44.74;101139.91;5080429;28;45247;-58
2022/08/23 10:25:25;;;;;;;;;3.50;3.50;;;;;28.58;44.52;101135.56;5081034;28;45236;-58
2022/08/23 10:30:44;;;;;;;;;5.25;2.25;;;;;28.82;45.09;101124.53;5062646;28;45333;-58
2022/08/23 10:33:18;;;;;;;;;3.00;3.00;;;;;28.93;44.55;101131.72;5066949;28;46901;-58
2022/08/23 10:36:02;;;;;;;;;3.75;3.00;;;;;29.11;44.20;101134.66;5060699;28;45390;-57
2022/08/23 10:38:41;;;;;;;;;4.00;4.00;;;;;29.25;44.09;101124.50;5060761;28;45247;-57
2022/08/23 10:41:32;;;;;;;;;2.75;2.75;;;;;29.44;44.18;101130.03;5060630;28;45338;-57
2022/08/23 10:44:18;;;;;;;;;3.00;3.00;;;;;29.62;44.37;101116.72;5067754;28;46210;-57
2022/08/23 10:47:09;;;;;;;;;1.25;1.25;;;;;29.80;44.39;101116.06;5080447;28;45346;-57
2022/08/23 10:49:38;;;;;;;;;2.75;2.75;;;;;30.09;44.22;101124.25;5078767;28;45448;-57
2022/08/23 10:52:08;;;;;;;;;5.75;3.50;;;;;30.38;44.39;101126.13;5060507;28;45520;-58
2022/08/23 10:54:45;;;;;;;;;3.00;3.00;;;;;30.74;43.87;101118.31;5058473;28;47800;-58
2022/08/23 10:57:16;;;;;;;;;2.00;2.00;;;;;31.17;44.68;101110.69;5059174;28;45697;-58
2022/08/23 10:59:44;;;;;;;;;2.75;2.75;;;;;31.61;44.78;101104.63;5060166;28;45373;-57
2022/08/23 11:02:41;;;;;;;;;3.75;3.75;;;;;32.14;44.70;101110.31;5059935;28;45330;-58
2022/08/23 11:05:22;;;;;;;;;4.00;4.00;;;;;32.71;43.72;101108.13;5068901;28;45475;-58
2022/08/23 11:08:06;;;;;;;;;1.00;1.00;;;;;33.18;43.87;101114.25;5080261;28;45489;-57
2022/08/23 11:10:46;;;;;;;;;5.50;5.00;;;;;33.63;42.85;101109.56;5080426;28;45390;-58
2022/08/23 11:13:12;;;;;;;;;2.50;2.50;;;;;34.00;42.86;101114.63;5080530;28;45425;-58
2022/08/23 11:15:45;;;;;;;;;1.00;1.00;;;;;34.40;42.43;101114.03;5080383;28;46166;-58
2022/08/23 11:18:47;;;;;;;;;2.25;1.00;;;;;34.74;42.14;101108.38;5080059;28;45167;-58
2022/08/23 11:21:27;;;;;;;;;3.50;2.00;;;;;35.09;41.90;101111.75;5080187;27;45522;-58
2022/08/23 11:23:58;;;;;;;;;1.75;1.75;;;;;35.25;41.00;101102.69;5079212;28;45456;-58
2022/08/23 11:26:26;;;;;;;;;0.75;0.75;;;;;35.46;40.45;101112.22;5080257;28;46260;-57
2022/08/23 11:29:09;;;;;;;;;3.00;1.75;;;;;35.54;39.84;101123.09;5077767;28;45412;-57
2022/08/23 11:31:41;;;;;;;;;1.00;1.00;;;;;35.50;38.88;101113.56;5059966;28;45258;-57
2022/08/23 11:34:44;;;;;;;;;1.50;1.50;;;;;35.50;39.08;101115.41;5059385;28;45487;-57
2022/08/23 11:37:18;;;;;;;;;2.75;0.00;;;;;35.61;38.96;101107.69;5059617;28;46311;-57
2022/08/23 11:39:59;;;;;;;;;1.00;1.00;;;;;35.77;39.23;101112.22;5059809;28;45390;-57
2022/08/23 11:42:36;;;;;;;;;0.00;0.00;;;;;35.91;38.49;101110.63;5066970;28;45269;-58
2022/08/23 11:45:19;;;;;;;;;0.75;0.75;;;;;35.98;39.01;101118.97;5079907;28;45232;-58